createdAt,value
2024-05-09T00:00:54.854Z,100169.64
2024-05-09T00:03:45.015Z,100171.84
2024-05-09T00:06:16.748Z,100167.61
2024-05-09T00:08:48.814Z,100166.23
2024-05-09T00:11:23.204Z,100164.04
2024-05-09T00:13:54.788Z,100166.63
2024-05-09T00:16:26.080Z,100168.92
2024-05-09T00:18:57.499Z,100167.20
2024-05-09T00:21:27.469Z,100166.37
2024-05-09T00:23:58.845Z,100164.63
2024-05-09T00:26:30.367Z,100167.51
2024-05-09T00:29:00.344Z,100166.23
2024-05-09T00:31:31.667Z,100168.51
2024-05-09T00:34:03.422Z,100172.84
2024-05-09T00:36:34.969Z,100175.35
2024-05-09T00:39:06.317Z,100175.77
2024-05-09T00:41:37.729Z,100174.77
2024-05-09T00:44:09.382Z,100174.79
2024-05-09T00:46:39.310Z,100171.62
2024-05-09T00:49:12.577Z,100172.87
2024-05-09T00:51:44.649Z,100172.00
2024-05-09T00:54:16.814Z,100170.17
2024-05-09T00:56:49.491Z,100171.38
2024-05-09T00:59:22.589Z,100166.77
2024-05-09T01:01:54.575Z,100166.95
2024-05-09T01:04:26.084Z,100169.38
2024-05-09T01:07:32.743Z,100166.83
2024-05-09T01:10:09.077Z,100162.52
2024-05-09T01:12:43.369Z,100162.88
2024-05-09T01:15:14.807Z,100157.70
2024-05-09T01:17:47.143Z,100153.80
2024-05-09T01:20:22.952Z,100160.02
2024-05-09T01:23:00.864Z,100158.09
2024-05-09T01:25:32.795Z,100156.90
2024-05-09T01:28:04.395Z,100157.19
2024-05-09T01:30:37.506Z,100159.55
2024-05-09T01:33:11.779Z,100162.16
2024-05-09T01:35:44.452Z,100161.09
2024-05-09T01:38:17.261Z,100163.90
2024-05-09T01:40:49.451Z,100168.96
2024-05-09T01:43:20.778Z,100168.34
2024-05-09T01:45:52.092Z,100174.76
2024-05-09T01:48:23.543Z,100179.70
2024-05-09T01:50:55.076Z,100183.47
2024-05-09T01:53:26.480Z,100180.59
2024-05-09T01:55:57.867Z,100182.85
2024-05-09T01:58:29.916Z,100182.63
2024-05-09T02:01:01.356Z,100185.51
2024-05-09T02:03:32.883Z,100182.73
2024-05-09T02:06:04.661Z,100184.29
2024-05-09T02:08:34.768Z,100180.77
2024-05-09T02:11:09.605Z,100181.48
2024-05-09T02:13:41.920Z,100178.94
2024-05-09T02:16:14.506Z,100180.90
2024-05-09T02:18:45.973Z,100176.05
2024-05-09T02:21:17.420Z,100174.23
2024-05-09T02:23:47.585Z,100170.36
2024-05-09T02:26:19.026Z,100171.51
2024-05-09T02:28:50.506Z,100175.30
2024-05-09T02:31:21.881Z,100171.95
2024-05-09T02:33:54.072Z,100177.30
2024-05-09T02:36:25.765Z,100174.34
2024-05-09T02:38:57.130Z,100175.93
2024-05-09T02:41:28.557Z,100175.87
2024-05-09T02:43:59.940Z,100179.00
2024-05-09T02:46:31.422Z,100174.83
2024-05-09T02:49:01.568Z,100178.00
2024-05-09T02:51:32.928Z,100179.27
2024-05-09T02:54:04.335Z,100176.53
2024-05-09T02:56:35.685Z,100172.80
2024-05-09T02:59:07.042Z,100171.25
2024-05-09T03:01:38.498Z,100169.05
2024-05-09T03:04:09.970Z,100169.02
2024-05-09T03:06:44.050Z,100168.44
2024-05-09T03:09:15.331Z,100165.13
2024-05-09T03:11:47.222Z,100167.72
2024-05-09T03:14:20.172Z,100167.22
2024-05-09T03:16:51.628Z,100166.27
2024-05-09T03:19:23.150Z,100169.79
2024-05-09T03:21:54.788Z,100172.89
2024-05-09T03:24:26.104Z,100184.29
2024-05-09T03:26:57.410Z,100182.20
2024-05-09T03:29:28.838Z,100183.17
2024-05-09T03:32:01.223Z,100186.48
2024-05-09T03:34:32.802Z,100189.11
2024-05-09T03:37:04.238Z,100188.55
2024-05-09T03:39:35.690Z,100184.44
2024-05-09T03:42:08.108Z,100182.58
2024-05-09T03:44:39.465Z,100183.18
2024-05-09T03:47:10.825Z,100184.97
2024-05-09T03:49:42.150Z,100185.61
2024-05-09T03:52:13.596Z,100184.61
2024-05-09T03:54:48.364Z,100186.38
2024-05-09T03:57:19.704Z,100182.91
2024-05-09T03:59:51.007Z,100185.31
2024-05-09T04:02:22.477Z,100184.57
2024-05-09T04:04:54.011Z,100187.30
2024-05-09T04:07:25.369Z,100191.27
2024-05-09T04:09:56.681Z,100189.45
2024-05-09T04:12:28.996Z,100187.69
2024-05-09T04:15:00.480Z,100192.70
2024-05-09T04:17:32.127Z,100190.39
2024-05-09T04:20:05.127Z,100191.37
2024-05-09T04:22:38.045Z,100192.73
2024-05-09T04:25:09.797Z,100192.63
2024-05-09T04:27:39.631Z,100194.06
2024-05-09T04:30:18.800Z,100191.88
2024-05-09T04:32:57.733Z,100194.17
2024-05-09T04:35:29.381Z,100189.79
2024-05-09T04:38:01.230Z,100187.28
2024-05-09T04:40:35.678Z,100191.02
2024-05-09T04:43:14.729Z,100189.19
2024-05-09T04:45:46.187Z,100191.25
2024-05-09T04:48:17.779Z,100190.73
2024-05-09T04:50:49.526Z,100184.66
2024-05-09T04:53:21.075Z,100184.19
2024-05-09T04:55:52.674Z,100190.30
2024-05-09T04:58:22.635Z,100184.75
2024-05-09T05:00:54.209Z,100185.63
2024-05-09T05:03:24.404Z,100189.45
2024-05-09T05:05:56.554Z,100191.31
2024-05-09T05:08:28.165Z,100189.82
2024-05-09T05:10:59.599Z,100193.09
2024-05-09T05:13:36.715Z,100196.16
2024-05-09T05:16:10.362Z,100198.27
2024-05-09T05:18:41.779Z,100195.69
2024-05-09T05:21:13.502Z,100197.86
2024-05-09T05:23:45.253Z,100200.06
2024-05-09T05:26:20.425Z,100197.13
2024-05-09T05:28:52.853Z,100196.19
2024-05-09T05:31:24.192Z,100193.77
2024-05-09T05:33:55.622Z,100194.83
2024-05-09T05:36:27.005Z,100188.42
2024-05-09T05:38:58.363Z,100188.45
2024-05-09T05:41:29.805Z,100192.13
2024-05-09T05:43:59.971Z,100195.91
2024-05-09T05:46:31.335Z,100196.23
2024-05-09T05:49:02.838Z,100197.04
2024-05-09T05:51:32.690Z,100197.82
2024-05-09T05:54:04.092Z,100193.42
2024-05-09T05:56:35.504Z,100195.15
2024-05-09T05:59:05.510Z,100197.57
2024-05-09T06:01:36.891Z,100201.31
2024-05-09T06:04:08.399Z,100202.02
2024-05-09T06:06:39.839Z,100206.30
2024-05-09T06:09:11.190Z,100202.98
2024-05-09T06:11:43.493Z,100202.14
2024-05-09T06:14:16.104Z,100199.56
2024-05-09T06:16:47.692Z,100197.45
2024-05-09T06:19:19.569Z,100198.08
2024-05-09T06:21:51.125Z,100202.04
2024-05-09T06:24:22.620Z,100199.55
2024-05-09T06:26:52.422Z,100201.24
2024-05-09T06:29:23.964Z,100204.04
2024-05-09T06:31:57.760Z,100203.65
2024-05-09T06:34:31.236Z,100200.84
2024-05-09T06:37:02.802Z,100199.73
2024-05-09T06:39:32.760Z,100197.14
2024-05-09T06:42:04.259Z,100195.66
2024-05-09T06:44:35.675Z,100189.86
2024-05-09T06:47:05.741Z,100193.09
2024-05-09T06:49:37.907Z,100194.80
2024-05-09T06:52:11.701Z,100192.18
2024-05-09T06:54:43.230Z,100191.90
2024-05-09T06:57:14.605Z,100198.63
2024-05-09T06:59:44.499Z,100196.23
2024-05-09T07:02:15.954Z,100197.38
2024-05-09T07:04:47.434Z,100197.52
2024-05-09T07:07:18.811Z,100202.38
2024-05-09T07:09:48.647Z,100198.80
2024-05-09T07:12:20.064Z,100199.84
2024-05-09T07:14:52.343Z,100192.20
2024-05-09T07:17:23.920Z,100193.98
2024-05-09T07:19:55.571Z,100191.46
2024-05-09T07:22:27.965Z,100191.50
2024-05-09T07:24:59.296Z,100196.17
2024-05-09T07:27:29.147Z,100195.95
2024-05-09T07:29:59.239Z,100197.29
2024-05-09T07:32:30.680Z,100194.20
2024-05-09T07:35:02.401Z,100196.36
2024-05-09T07:37:33.798Z,100196.06
2024-05-09T07:40:07.381Z,100200.65
2024-05-09T07:42:38.992Z,100203.17
2024-05-09T07:45:29.658Z,100196.06
2024-05-09T07:52:32.654Z,100196.77
2024-05-09T07:53:39.930Z,100198.73
2024-05-09T07:56:18.113Z,100195.55
2024-05-09T07:58:53.331Z,100191.66
2024-05-09T08:01:27.003Z,100193.55
2024-05-09T08:03:58.938Z,100199.29
2024-05-09T08:06:30.571Z,100198.98
2024-05-09T08:09:05.472Z,100199.42
2024-05-09T08:11:40.232Z,100192.55
2024-05-09T08:14:11.564Z,100195.48
2024-05-09T08:16:43.321Z,100196.52
2024-05-09T08:19:14.635Z,100197.16
2024-05-09T08:21:46.120Z,100195.52
2024-05-09T08:24:17.519Z,100197.14
2024-05-09T08:26:48.953Z,100192.08
2024-05-09T08:29:20.414Z,100187.36
2024-05-09T08:31:55.744Z,100184.06
2024-05-09T08:34:27.380Z,100185.36
2024-05-09T08:37:03.743Z,100182.29
2024-05-09T08:39:41.503Z,100177.44
2024-05-09T08:42:18.192Z,100176.93
2024-05-09T08:44:51.196Z,100173.42
2024-05-09T08:47:22.798Z,100173.09
2024-05-09T08:49:58.746Z,100168.98
2024-05-09T08:52:30.271Z,100175.80
2024-05-09T08:55:01.716Z,100175.96
2024-05-09T08:57:34.115Z,100180.45
2024-05-09T09:00:14.859Z,100178.61
2024-05-09T09:02:53.040Z,100173.45
2024-05-09T09:05:32.411Z,100171.17
2024-05-09T09:08:09.035Z,100172.38
2024-05-09T09:10:43.319Z,100168.48
2024-05-09T09:13:14.843Z,100172.06
2024-05-09T09:15:58.692Z,100174.52
2024-05-09T09:18:33.518Z,100177.92
2024-05-09T09:21:05.361Z,100175.83
2024-05-09T09:23:36.738Z,100173.61
2024-05-09T09:26:08.320Z,100172.78
2024-05-09T09:28:41.484Z,100167.20
2024-05-09T09:31:12.969Z,100171.25
2024-05-09T09:33:45.735Z,100173.82
2024-05-09T09:36:18.594Z,100174.16
2024-05-09T09:38:52.013Z,100175.70
2024-05-09T09:41:30.730Z,100176.92
2024-05-09T09:44:04.449Z,100177.48
2024-05-09T09:46:36.879Z,100174.28
2024-05-09T09:49:10.775Z,100174.66
2024-05-09T09:51:44.574Z,100172.66
2024-05-09T09:54:16.313Z,100169.66
2024-05-09T09:56:48.635Z,100164.80
2024-05-09T09:59:20.122Z,100166.55
2024-05-09T10:01:51.612Z,100166.84
2024-05-09T10:04:24.911Z,100170.46
2024-05-09T10:07:00.588Z,100170.56
2024-05-09T10:09:34.438Z,100165.10
2024-05-09T10:12:14.437Z,100160.39
2024-05-09T10:14:51.134Z,100157.34
2024-05-09T10:17:23.041Z,100155.48
2024-05-09T10:20:14.832Z,100157.39
2024-05-09T10:22:53.090Z,100160.58
2024-05-09T10:25:25.038Z,100161.58
2024-05-09T10:27:58.414Z,100161.33
2024-05-09T10:30:36.089Z,100152.65
2024-05-09T10:33:13.154Z,100157.48
2024-05-09T10:35:53.840Z,100154.83
2024-05-09T10:38:26.370Z,100156.25
2024-05-09T10:41:00.817Z,100150.16
2024-05-09T10:43:34.388Z,100148.38
2024-05-09T10:46:07.688Z,100151.28
2024-05-09T10:48:40.670Z,100153.05
2024-05-09T10:51:12.347Z,100149.95
2024-05-09T10:53:45.473Z,100148.98
2024-05-09T10:56:17.699Z,100146.14
2024-05-09T10:58:51.877Z,100141.31
2024-05-09T11:01:23.468Z,100138.11
2024-05-09T11:03:57.485Z,100134.05
2024-05-09T11:06:30.157Z,100128.70
2024-05-09T11:09:01.590Z,100126.23
2024-05-09T11:11:33.609Z,100120.27
2024-05-09T11:14:14.185Z,100119.13
2024-05-09T11:16:45.569Z,100119.63
2024-05-09T11:19:19.566Z,100115.55
2024-05-09T11:21:54.933Z,100119.73
2024-05-09T11:24:26.358Z,100123.56
2024-05-09T11:26:58.409Z,100115.45
2024-05-09T11:29:40.297Z,100115.52
2024-05-09T11:32:14.816Z,100116.81
2024-05-09T11:34:46.191Z,100114.79
2024-05-09T11:37:17.740Z,100114.46
2024-05-09T11:39:49.563Z,100117.45
2024-05-09T11:42:22.378Z,100117.56
2024-05-09T11:44:53.657Z,100116.30
2024-05-09T11:47:25.225Z,100114.67
2024-05-09T11:49:57.223Z,100113.89
2024-05-09T11:52:28.744Z,100111.83
2024-05-09T11:55:01.231Z,100112.33
2024-05-09T11:57:32.868Z,100110.02
2024-05-09T12:00:05.688Z,100110.54
2024-05-09T12:02:38.845Z,100110.36
2024-05-09T12:05:10.404Z,100108.73
2024-05-09T12:07:43.347Z,100113.77
2024-05-09T12:10:19.619Z,100111.10
2024-05-09T12:12:56.426Z,100111.04
2024-05-09T12:15:27.924Z,100111.16
2024-05-09T12:18:02.719Z,100109.72
2024-05-09T12:20:39.190Z,100109.04
2024-05-09T12:23:12.087Z,100108.96
2024-05-09T12:25:43.496Z,100113.08
2024-05-09T12:28:15.647Z,100112.71
2024-05-09T12:30:49.063Z,100109.89
2024-05-09T12:33:21.938Z,100108.10
2024-05-09T12:35:53.500Z,100099.55
2024-05-09T12:38:24.869Z,100097.11
2024-05-09T12:40:56.488Z,100093.72
2024-05-09T12:43:28.015Z,100089.23
2024-05-09T12:46:00.489Z,100085.27
2024-05-09T12:48:32.119Z,100086.15
2024-05-09T12:51:03.509Z,100087.77
2024-05-09T12:53:34.785Z,100087.98
2024-05-09T12:58:47.104Z,100086.80
2024-05-09T13:01:18.567Z,100084.84
2024-05-09T13:03:50.490Z,100083.02
2024-05-09T13:06:22.117Z,100079.28
2024-05-09T13:08:53.460Z,100075.28
2024-05-09T13:11:24.803Z,100072.65
2024-05-09T13:13:57.024Z,100068.89
2024-05-09T13:16:28.446Z,100065.12
2024-05-09T13:18:59.953Z,100063.41
2024-05-09T13:21:31.383Z,100065.79
2024-05-09T13:24:03.181Z,100058.23
2024-05-09T13:26:34.704Z,100052.38
2024-05-09T13:29:06.102Z,100052.42
2024-05-09T13:31:37.517Z,100045.39
2024-05-09T13:34:09.051Z,100044.38
2024-05-09T13:36:41.419Z,100043.73
2024-05-09T13:39:13.002Z,100040.45
2024-05-09T13:41:44.401Z,100038.52
2024-05-09T13:44:15.806Z,100037.81
2024-05-09T13:46:47.228Z,100032.98
2024-05-09T13:49:18.677Z,100026.46
2024-05-09T13:51:50.155Z,100027.77
2024-05-09T13:54:22.719Z,100033.29
2024-05-09T13:56:54.650Z,100033.27
2024-05-09T13:59:25.978Z,100032.32
2024-05-09T14:01:57.391Z,100024.75
2024-05-09T14:04:29.136Z,100022.26
2024-05-09T14:07:00.704Z,100019.91
2024-05-09T14:09:32.187Z,100017.58
2024-05-09T14:12:03.521Z,100015.64
2024-05-09T14:14:35.665Z,100013.63
2024-05-09T14:17:07.469Z,100012.05
2024-05-09T14:19:38.894Z,100007.14
2024-05-09T14:22:10.257Z,100007.28
2024-05-09T14:24:42.147Z,100003.40
2024-05-09T14:27:13.592Z,100004.74
2024-05-09T14:29:44.928Z,100005.00
2024-05-09T14:32:16.600Z,100000.97
2024-05-09T14:34:48.028Z,99999.41
2024-05-09T14:37:19.592Z,99999.17
2024-05-09T14:39:51.020Z,99995.01
2024-05-09T14:42:22.692Z,99987.60
2024-05-09T14:44:54.265Z,99990.19
2024-05-09T14:47:26.299Z,99985.89
2024-05-09T14:49:57.827Z,99989.38
2024-05-09T14:52:29.163Z,99986.19
2024-05-09T14:55:01.171Z,99986.22
2024-05-09T14:57:32.916Z,99984.83
2024-05-09T15:00:08.980Z,99982.23
2024-05-09T15:02:43.023Z,99980.11
2024-05-09T15:05:14.695Z,99975.16
2024-05-09T15:07:46.967Z,99973.46
2024-05-09T15:10:26.569Z,99965.85
2024-05-09T15:13:05.842Z,99961.63
2024-05-09T15:15:39.154Z,99958.30
2024-05-09T15:18:11.158Z,99955.90
2024-05-09T15:20:44.895Z,99950.12
2024-05-09T15:23:16.440Z,99948.44
2024-05-09T15:25:48.350Z,99945.30
2024-05-09T15:28:19.877Z,99938.70
2024-05-09T15:30:51.412Z,99936.34
2024-05-09T15:33:22.834Z,99937.67
2024-05-09T15:35:54.577Z,99933.20
2024-05-09T15:38:27.471Z,99933.09
2024-05-09T15:40:59.437Z,99928.08
2024-05-09T15:43:31.227Z,99926.90
2024-05-09T15:46:02.930Z,99924.03
2024-05-09T15:48:34.390Z,99923.80
2024-05-09T15:51:08.154Z,99922.80
2024-05-09T15:53:39.513Z,99917.59
2024-05-09T15:56:11.884Z,99913.49
2024-05-09T15:58:43.666Z,99910.17
2024-05-09T16:01:15.405Z,99907.79
2024-05-09T16:03:47.004Z,99907.33
2024-05-09T16:06:18.779Z,99906.57
2024-05-09T16:08:50.158Z,99907.66
2024-05-09T16:11:21.573Z,99906.98
2024-05-09T16:13:52.940Z,99908.76
2024-05-09T16:16:25.193Z,99904.20
2024-05-09T16:18:56.786Z,99902.05
2024-05-09T16:21:28.356Z,99903.84
2024-05-09T16:24:01.383Z,99905.48
2024-05-09T16:26:33.088Z,99906.23
2024-05-09T16:29:04.573Z,99907.25
2024-05-09T16:31:35.991Z,99904.23
2024-05-09T16:34:07.462Z,99902.62
2024-05-09T16:36:38.868Z,99904.73
2024-05-09T16:39:10.199Z,99908.20
2024-05-09T16:41:41.827Z,99907.44
2024-05-09T16:44:13.244Z,99908.42
2024-05-09T16:46:45.216Z,99908.33
2024-05-09T16:49:17.043Z,99903.54
2024-05-09T16:51:48.466Z,99903.91
2024-05-09T16:54:19.772Z,99904.29
2024-05-09T16:56:51.496Z,99899.35
2024-05-09T16:59:22.935Z,99901.45
2024-05-09T17:01:54.435Z,99899.41
2024-05-09T17:04:26.234Z,99901.64
2024-05-09T17:06:58.523Z,99897.70
2024-05-09T17:09:30.000Z,99900.27
2024-05-09T17:12:01.472Z,99896.27
2024-05-09T17:14:33.233Z,99894.99
2024-05-09T17:17:07.036Z,99894.95
2024-05-09T17:19:40.579Z,99888.30
2024-05-09T17:22:12.454Z,99885.42
2024-05-09T17:24:44.111Z,99888.13
2024-05-09T17:27:15.831Z,99887.60
2024-05-09T17:29:47.502Z,99884.39
2024-05-09T17:32:18.947Z,99883.19
2024-05-09T17:34:50.294Z,99884.30
2024-05-09T17:37:21.894Z,99884.94
2024-05-09T17:39:55.248Z,99878.48
2024-05-09T17:42:26.632Z,99880.86
2024-05-09T17:44:57.953Z,99880.05
2024-05-09T17:47:29.394Z,99882.35
2024-05-09T17:50:00.912Z,99886.89
2024-05-09T17:52:32.646Z,99887.61
2024-05-09T17:55:04.131Z,99889.17
2024-05-09T17:57:35.749Z,99889.36
2024-05-09T18:00:11.823Z,99892.96
2024-05-09T18:02:43.600Z,99895.35
2024-05-09T18:05:15.347Z,99896.09
2024-05-09T18:07:46.899Z,99898.83
2024-05-09T18:10:25.437Z,99898.88
2024-05-09T18:13:01.469Z,99898.40
2024-05-09T18:15:33.294Z,99900.14
2024-05-09T18:18:06.588Z,99902.06
2024-05-09T18:20:43.640Z,99898.39
2024-05-09T18:23:19.480Z,99897.11
2024-05-09T18:25:54.496Z,99901.67
2024-05-09T18:28:26.367Z,99901.91
2024-05-09T18:30:57.815Z,99903.08
2024-05-09T18:33:29.391Z,99909.97
2024-05-09T18:36:02.020Z,99912.21
2024-05-09T18:38:33.601Z,99914.72
2024-05-09T18:41:05.157Z,99910.15
2024-05-09T18:43:42.293Z,99913.80
2024-05-09T18:46:17.092Z,99914.71
2024-05-09T18:48:48.670Z,99921.31
2024-05-09T18:51:21.100Z,99918.20
2024-05-09T18:53:54.729Z,99920.77
2024-05-09T18:56:26.830Z,99921.91
2024-05-09T18:58:58.140Z,99921.73
2024-05-09T19:01:29.689Z,99922.43
2024-05-09T19:04:01.583Z,99917.80
2024-05-09T19:06:33.337Z,99917.09
2024-05-09T19:09:05.679Z,99919.45
2024-05-09T19:11:39.864Z,99928.05
2024-05-09T19:14:11.275Z,99927.60
2024-05-09T19:16:44.214Z,99926.45
2024-05-09T19:19:16.155Z,99926.74
2024-05-09T19:21:47.850Z,99924.77
2024-05-09T19:24:19.296Z,99926.21
2024-05-09T19:26:50.753Z,99929.77
2024-05-09T19:29:22.617Z,99929.23
2024-05-09T19:31:54.041Z,99926.31
2024-05-09T19:34:25.538Z,99926.23
2024-05-09T19:36:57.117Z,99929.46
2024-05-09T19:39:28.451Z,99925.98
2024-05-09T19:41:58.274Z,99922.88
2024-05-09T19:44:29.748Z,99924.81
2024-05-09T19:47:01.162Z,99923.19
2024-05-09T19:49:31.284Z,99925.77
2024-05-09T19:52:03.001Z,99924.34
2024-05-09T19:54:34.687Z,99925.08
2024-05-09T19:57:06.670Z,99925.80
2024-05-09T19:59:38.038Z,99924.30
2024-05-09T20:02:09.697Z,99932.45
2024-05-09T20:04:45.135Z,99936.08
2024-05-09T20:07:17.102Z,99936.56
2024-05-09T20:09:49.224Z,99939.31
2024-05-09T20:12:21.059Z,99935.16
2024-05-09T20:14:52.736Z,99938.46
2024-05-09T20:17:22.661Z,99936.21
2024-05-09T20:19:54.657Z,99940.36
2024-05-09T20:22:26.167Z,99940.35
2024-05-09T20:24:57.999Z,99940.35
2024-05-09T20:27:30.333Z,99939.46
2024-05-09T20:30:02.383Z,99940.73
2024-05-09T20:32:34.343Z,99936.69
2024-05-09T20:35:06.550Z,99940.83
2024-05-09T20:37:37.861Z,99935.88
2024-05-09T20:40:18.299Z,99937.36
2024-05-09T20:42:56.496Z,99935.17
2024-05-09T20:45:27.841Z,99934.98
2024-05-09T20:47:59.310Z,99936.38
2024-05-09T20:50:37.820Z,99934.88
2024-05-09T20:53:14.553Z,99933.67
2024-05-09T20:55:47.112Z,99928.98
2024-05-09T20:58:17.066Z,99928.54
2024-05-09T21:00:48.695Z,99931.89
2024-05-09T21:03:20.679Z,99933.89
2024-05-09T21:05:50.696Z,99930.86
2024-05-09T21:08:23.257Z,99930.17
2024-05-09T21:10:55.393Z,99929.55
2024-05-09T21:13:27.181Z,99928.31
2024-05-09T21:15:58.859Z,99923.77
2024-05-09T21:18:30.280Z,99925.92
2024-05-09T21:21:02.151Z,99925.63
2024-05-09T21:23:34.454Z,99923.89
2024-05-09T21:26:08.220Z,99922.07
2024-05-09T21:28:39.683Z,99918.51
2024-05-09T21:31:12.163Z,99915.98
2024-05-09T21:33:43.772Z,99913.23
2024-05-09T21:36:15.410Z,99910.30
2024-05-09T21:38:46.712Z,99907.60
2024-05-09T21:41:18.076Z,99907.71
2024-05-09T21:43:50.613Z,99910.12
2024-05-09T21:46:27.714Z,99906.27
2024-05-09T21:48:59.200Z,99913.52
2024-05-09T21:51:32.140Z,99909.66
2024-05-09T21:54:03.603Z,99908.63
2024-05-09T21:56:34.912Z,99910.83
2024-05-09T21:59:06.645Z,99913.66
2024-05-09T22:01:38.042Z,99915.95
2024-05-09T22:04:09.513Z,99916.19
2024-05-09T22:06:41.147Z,99914.89
2024-05-09T22:09:12.613Z,99912.77
2024-05-09T22:11:44.041Z,99915.15
2024-05-09T22:14:15.354Z,99911.83
2024-05-09T22:16:46.765Z,99909.27
2024-05-09T22:19:18.750Z,99909.48
2024-05-09T22:21:50.675Z,99912.30
2024-05-09T22:24:22.113Z,99910.95
2024-05-09T22:26:55.233Z,99907.73
2024-05-09T22:29:26.592Z,99907.57
2024-05-09T22:31:58.457Z,99904.71
2024-05-09T22:34:29.946Z,99904.66
2024-05-09T22:36:59.849Z,99903.78
2024-05-09T22:39:31.566Z,99904.11
2024-05-09T22:42:02.928Z,99902.16
2024-05-09T22:44:32.937Z,99900.61
2024-05-09T22:47:04.455Z,99899.71
2024-05-09T22:49:34.458Z,99903.41
2024-05-09T22:52:06.388Z,99906.31
2024-05-09T22:54:37.733Z,99908.32
2024-05-09T22:57:09.105Z,99905.92
2024-05-09T22:59:40.591Z,99905.30
2024-05-09T23:02:10.571Z,99901.28
2024-05-09T23:04:42.043Z,99900.96
2024-05-09T23:07:12.198Z,99897.91
2024-05-09T23:09:46.990Z,99899.41
2024-05-09T23:12:18.435Z,99898.19
2024-05-09T23:14:49.989Z,99898.06
2024-05-09T23:17:21.628Z,99898.19
2024-05-09T23:19:53.036Z,99897.38
2024-05-09T23:22:25.137Z,99897.70
2024-05-09T23:24:56.560Z,99892.27
2024-05-09T23:27:28.379Z,99893.36
2024-05-09T23:29:59.778Z,99893.09
2024-05-09T23:32:31.495Z,99889.98
2024-05-09T23:35:02.934Z,99893.81
2024-05-09T23:37:33.070Z,99891.74
2024-05-09T23:40:07.011Z,99890.85
2024-05-09T23:42:42.874Z,99886.75
2024-05-09T23:45:14.761Z,99880.34
2024-05-09T23:47:46.423Z,99883.29
2024-05-09T23:50:24.002Z,99881.13
2024-05-09T23:53:02.805Z,99882.61
2024-05-09T23:55:32.862Z,99879.16
2024-05-09T23:58:04.977Z,99878.00
